Time;durP1;ratioP1;P1;durP2;ratioP2;P2;SDS_P1;SDS_P2;PMS_P1;PMS_P2;Temp;Humidity;BMP_temperature;BMP_pressure;BME280_temperature;BME280_humidity;BME280_pressure;Samples;Min_cycle;Max_cycle;Signal;HPM_P1;HPM_P2
2022/06/30 00:01:33;;;;;;;5.20;4.53;;;19.70;99.90;;;;;;6245870;23;20099;-87
2022/06/30 00:03:59;;;;;;;6.78;4.07;;;19.70;99.90;;;;;;6192831;23;20016;-86
2022/06/30 00:06:24;;;;;;;5.65;4.10;;;19.60;99.90;;;;;;6245337;23;20138;-84
2022/06/30 00:08:50;;;;;;;5.57;4.28;;;19.60;99.90;;;;;;6245858;23;20062;-84
2022/06/30 00:11:16;;;;;;;8.63;3.90;;;19.60;99.90;;;;;;6245513;23;20023;-83
2022/06/30 00:13:42;;;;;;;6.78;3.90;;;19.60;99.90;;;;;;6219212;23;20055;-83
2022/06/30 00:16:09;;;;;;;15.85;4.13;;;19.60;99.90;;;;;;6219270;23;20023;-83
2022/06/30 00:18:35;;;;;;;4.80;4.32;;;19.60;99.90;;;;;;6219162;23;20097;-83
2022/06/30 00:21:01;;;;;;;6.72;3.88;;;19.50;99.90;;;;;;6245763;23;20012;-83
2022/06/30 00:23:28;;;;;;;5.65;4.18;;;19.50;99.90;;;;;;6246789;23;20023;-85
2022/06/30 00:25:53;;;;;;;6.38;3.65;;;19.50;99.90;;;;;;6247796;23;20310;-85
2022/06/30 00:28:19;;;;;;;4.93;3.70;;;19.50;99.90;;;;;;6247618;23;20241;-85
2022/06/30 00:30:52;;;;;;;6.70;3.55;;;19.50;99.90;;;;;;6247548;23;20092;-86
2022/06/30 00:33:18;;;;;;;6.95;4.25;;;19.50;99.90;;;;;;6247747;23;20343;-86
2022/06/30 00:35:45;;;;;;;4.78;3.70;;;19.50;99.90;;;;;;6220595;23;20024;-86
2022/06/30 00:38:11;;;;;;;5.40;3.60;;;19.40;99.90;;;;;;6247513;23;20343;-86
2022/06/30 00:40:38;;;;;;;5.45;3.90;;;19.40;99.90;;;;;;6247067;23;20012;-86
2022/06/30 00:43:04;;;;;;;4.50;4.03;;;19.40;99.90;;;;;;6247359;23;20038;-86
2022/06/30 00:45:29;;;;;;;4.50;3.80;;;19.30;99.90;;;;;;6247056;23;20099;-86
2022/06/30 00:47:55;;;;;;;8.43;4.00;;;19.30;99.90;;;;;;6247365;23;20023;-87
2022/06/30 00:50:21;;;;;;;4.80;3.90;;;19.30;99.90;;;;;;6247716;23;20016;-87
2022/06/30 00:52:50;;;;;;;5.90;3.97;;;19.20;99.90;;;;;;6220691;23;20023;-88
2022/06/30 00:55:17;;;;;;;4.95;4.38;;;19.20;99.90;;;;;;6247480;23;20095;-86
2022/06/30 00:57:44;;;;;;;5.15;4.00;;;19.20;99.90;;;;;;6247345;23;20016;-85
2022/06/30 01:00:11;;;;;;;6.50;4.55;;;19.10;99.90;;;;;;6220606;23;20019;-86
2022/06/30 01:02:37;;;;;;;5.35;4.32;;;19.10;99.90;;;;;;6247307;23;20087;-86
2022/06/30 01:05:04;;;;;;;6.57;4.35;;;19.10;99.90;;;;;;6247293;23;20058;-87
2022/06/30 01:07:30;;;;;;;5.22;4.22;;;19.10;99.90;;;;;;6247368;23;20028;-86
2022/06/30 01:12:47;;;;;;;5.47;4.13;;;18.90;99.90;;;;;;6220570;23;20047;-87
2022/06/30 01:15:21;;;;;;;6.20;4.80;;;18.90;99.90;;;;;;6247376;23;20016;-84
2022/06/30 01:17:48;;;;;;;7.45;3.80;;;18.90;99.90;;;;;;6247099;23;20016;-84
2022/06/30 01:20:15;;;;;;;4.97;3.85;;;18.80;99.90;;;;;;6247072;23;20134;-85
2022/06/30 01:22:41;;;;;;;5.43;4.10;;;18.80;99.90;;;;;;6246732;23;20440;-85
2022/06/30 01:25:09;;;;;;;6.82;3.83;;;18.80;99.90;;;;;;6220247;23;20019;-84
2022/06/30 01:27:34;;;;;;;8.25;4.55;;;18.70;99.90;;;;;;6220290;23;20016;-85
2022/06/30 01:30:01;;;;;;;5.00;4.03;;;18.70;99.90;;;;;;6220357;23;20020;-84
2022/06/30 01:32:29;;;;;;;6.82;4.40;;;18.70;99.90;;;;;;6219890;23;20059;-84
2022/06/30 01:34:55;;;;;;;4.97;4.40;;;18.60;99.90;;;;;;6219757;23;20024;-84
2022/06/30 01:37:21;;;;;;;5.97;4.40;;;18.60;99.90;;;;;;6246928;23;20027;-85
2022/06/30 01:39:47;;;;;;;8.85;4.60;;;18.50;99.90;;;;;;6219889;23;20012;-85
2022/06/30 01:42:12;;;;;;;7.00;5.10;;;18.60;99.90;;;;;;6219751;23;20054;-84
2022/06/30 01:44:38;;;;;;;6.88;5.30;;;18.50;99.90;;;;;;6246810;23;20016;-85
2022/06/30 01:47:04;;;;;;;5.65;5.03;;;18.50;99.90;;;;;;6246930;23;20012;-84
2022/06/30 01:49:30;;;;;;;8.45;5.05;;;18.40;99.90;;;;;;6246714;23;20020;-85
2022/06/30 01:51:56;;;;;;;7.85;4.80;;;18.40;99.90;;;;;;6246800;23;20023;-84
2022/06/30 01:54:22;;;;;;;6.22;5.13;;;18.30;99.90;;;;;;6194466;23;20020;-86
2022/06/30 01:56:48;;;;;;;12.18;5.10;;;18.30;99.90;;;;;;6246733;23;20020;-86
2022/06/30 01:59:14;;;;;;;6.38;4.97;;;18.30;99.90;;;;;;6246769;23;20009;-84
2022/06/30 02:01:39;;;;;;;7.05;5.18;;;18.20;99.90;;;;;;6220112;23;20444;-85
2022/06/30 02:06:50;;;;;;;20.33;14.88;;;18.10;99.90;;;;;;6219539;23;20112;-84
2022/06/30 02:09:16;;;;;;;20.63;15.45;;;18.10;99.90;;;;;;6246699;23;20047;-85
2022/06/30 02:11:41;;;;;;;36.53;25.50;;;18.10;99.90;;;;;;6219404;23;20020;-85
2022/06/30 02:14:07;;;;;;;37.03;25.65;;;18.00;99.90;;;;;;6246665;23;20020;-85
2022/06/30 02:16:32;;;;;;;26.88;19.67;;;18.00;99.90;;;;;;6246749;23;20016;-85
2022/06/30 02:18:58;;;;;;;23.98;15.65;;;17.90;99.90;;;;;;6219733;23;20024;-85
2022/06/30 02:21:24;;;;;;;12.65;11.18;;;17.90;99.90;;;;;;6246621;23;20016;-87
2022/06/30 02:23:51;;;;;;;11.73;9.13;;;17.90;99.90;;;;;;6219638;23;20094;-88
2022/06/30 02:26:18;;;;;;;9.50;7.03;;;18.00;99.90;;;;;;6246511;23;20100;-88
2022/06/30 02:28:43;;;;;;;11.25;6.15;;;17.90;99.90;;;;;;6246894;23;20016;-88
2022/06/30 02:31:12;;;;;;;9.40;5.38;;;17.90;99.90;;;;;;6219627;23;20482;-87
2022/06/30 02:33:41;;;;;;;6.53;4.70;;;17.80;99.90;;;;;;6246361;23;20024;-88
2022/06/30 02:36:07;;;;;;;6.45;4.88;;;17.80;99.90;;;;;;6246399;23;20039;-88
2022/06/30 02:38:34;;;;;;;6.38;4.78;;;17.80;99.90;;;;;;6246282;23;20073;-87
2022/06/30 02:40:59;;;;;;;7.93;5.30;;;17.80;99.90;;;;;;6219518;23;20020;-88
2022/06/30 02:43:25;;;;;;;6.90;5.00;;;17.70;99.90;;;;;;6246653;23;20012;-87
2022/06/30 02:45:51;;;;;;;7.15;5.10;;;17.70;99.90;;;;;;6219302;23;20444;-87
2022/06/30 02:48:18;;;;;;;7.25;5.40;;;17.70;99.90;;;;;;6219411;23;20012;-87
2022/06/30 02:50:44;;;;;;;7.07;5.20;;;17.60;99.90;;;;;;6219497;23;20020;-88
2022/06/30 02:53:11;;;;;;;6.13;5.30;;;17.60;99.90;;;;;;6246163;23;20056;-88
2022/06/30 02:55:37;;;;;;;6.70;5.03;;;17.60;99.90;;;;;;6246189;23;20016;-87
2022/06/30 02:58:03;;;;;;;5.90;5.13;;;17.50;99.90;;;;;;6219487;23;20016;-88
2022/06/30 03:00:28;;;;;;;7.22;5.25;;;17.50;99.90;;;;;;6217992;23;20039;-88
2022/06/30 03:02:55;;;;;;;7.03;5.25;;;17.40;99.90;;;;;;6245732;23;20340;-88
2022/06/30 03:05:21;;;;;;;5.68;5.10;;;17.40;99.90;;;;;;6219254;23;20023;-87
2022/06/30 03:07:47;;;;;;;5.88;4.50;;;17.40;99.90;;;;;;6218873;23;20013;-88
2022/06/30 03:10:13;;;;;;;8.05;5.43;;;17.40;99.90;;;;;;6245915;23;20094;-87
2022/06/30 03:12:39;;;;;;;7.57;5.30;;;17.30;99.90;;;;;;6246067;23;20087;-87
2022/06/30 03:15:06;;;;;;;7.15;5.35;;;17.20;99.90;;;;;;6246161;23;20023;-88
2022/06/30 03:17:32;;;;;;;6.30;4.88;;;17.30;99.90;;;;;;6219301;23;20081;-88
2022/06/30 03:19:57;;;;;;;6.40;5.10;;;17.30;99.90;;;;;;6219199;23;20355;-88
2022/06/30 03:22:23;;;;;;;7.18;4.90;;;17.30;99.90;;;;;;6246062;23;20016;-88
2022/06/30 03:24:49;;;;;;;7.25;5.00;;;17.10;99.90;;;;;;6245657;23;20016;-87
2022/06/30 03:27:14;;;;;;;4.97;4.50;;;17.30;99.90;;;;;;6218594;23;20051;-88
2022/06/30 03:29:40;;;;;;;7.50;5.05;;;17.20;99.90;;;;;;6219382;23;20067;-87
2022/06/30 03:32:06;;;;;;;6.68;4.88;;;17.30;99.90;;;;;;6246184;23;20020;-89
2022/06/30 03:34:31;;;;;;;6.18;5.15;;;17.30;99.90;;;;;;6245906;23;20020;-88
2022/06/30 03:36:57;;;;;;;5.47;4.95;;;17.30;99.90;;;;;;6246080;23;20055;-87
2022/06/30 03:39:23;;;;;;;6.85;5.10;;;17.20;99.90;;;;;;6245755;23;20087;-88
2022/06/30 03:41:48;;;;;;;7.15;5.57;;;17.20;99.90;;;;;;6246160;23;20020;-88
2022/06/30 03:44:14;;;;;;;8.43;5.13;;;17.20;99.90;;;;;;6245992;23;20012;-88
2022/06/30 03:46:39;;;;;;;5.95;5.13;;;17.20;99.90;;;;;;6246046;23;20114;-88
2022/06/30 03:49:05;;;;;;;5.93;5.32;;;17.20;99.90;;;;;;6245913;23;20022;-87
2022/06/30 03:51:31;;;;;;;7.07;5.20;;;17.20;99.90;;;;;;6246049;23;20055;-87
2022/06/30 03:53:56;;;;;;;5.97;5.18;;;17.20;99.90;;;;;;6245931;23;20016;-88
2022/06/30 03:56:23;;;;;;;7.38;5.25;;;17.20;99.90;;;;;;6245737;23;20023;-88
2022/06/30 03:58:49;;;;;;;7.82;6.03;;;17.20;99.90;;;;;;6220346;23;20031;-88
2022/06/30 04:01:15;;;;;;;8.65;5.65;;;17.20;99.90;;;;;;6248357;23;20016;-89
2022/06/30 04:03:40;;;;;;;6.18;5.65;;;17.10;99.90;;;;;;6221057;23;20432;-88
2022/06/30 04:06:06;;;;;;;6.75;5.57;;;17.10;99.90;;;;;;6247760;23;20012;-88
2022/06/30 04:08:32;;;;;;;6.03;5.40;;;17.10;99.90;;;;;;6247893;23;20082;-87
2022/06/30 04:10:57;;;;;;;8.18;5.15;;;17.10;99.90;;;;;;6247437;23;20074;-88
2022/06/30 04:13:23;;;;;;;7.85;5.75;;;17.10;99.90;;;;;;6247795;23;20098;-88
2022/06/30 04:15:48;;;;;;;6.55;5.90;;;17.10;99.90;;;;;;6221500;23;20020;-88
2022/06/30 04:18:14;;;;;;;5.80;5.20;;;17.10;99.90;;;;;;6196115;23;20078;-87
2022/06/30 04:20:40;;;;;;;6.57;5.88;;;17.20;99.90;;;;;;6220924;23;20343;-88
2022/06/30 04:23:05;;;;;;;7.63;6.35;;;17.20;99.90;;;;;;6220930;23;20042;-87
2022/06/30 04:25:31;;;;;;;8.05;5.78;;;17.20;99.90;;;;;;6247568;23;20038;-88
2022/06/30 04:28:00;;;;;;;7.57;6.00;;;17.30;99.90;;;;;;6247785;23;20016;-87
2022/06/30 04:33:10;;;;;;;8.63;6.45;;;17.30;99.90;;;;;;6220661;23;20087;-88
2022/06/30 04:35:36;;;;;;;6.35;5.75;;;17.40;99.90;;;;;;6220502;23;20444;-88
2022/06/30 04:38:03;;;;;;;10.60;6.05;;;17.40;99.90;;;;;;6247517;23;20016;-88
2022/06/30 04:43:13;;;;;;;10.70;6.13;;;17.40;99.90;;;;;;6220704;23;20082;-88
2022/06/30 04:45:39;;;;;;;9.63;5.72;;;17.50;99.90;;;;;;6220786;23;20024;-88
2022/06/30 04:48:05;;;;;;;8.48;5.50;;;17.50;99.90;;;;;;6247468;23;20027;-88
2022/06/30 04:50:31;;;;;;;7.00;5.57;;;17.60;99.90;;;;;;6246976;23;20498;-87
2022/06/30 04:52:57;;;;;;;8.18;6.30;;;17.70;99.90;;;;;;6247389;23;20028;-87
2022/06/30 04:55:23;;;;;;;8.07;5.68;;;17.70;99.90;;;;;;6220171;23;20079;-87
2022/06/30 04:57:48;;;;;;;5.95;5.28;;;17.70;99.90;;;;;;6247363;23;20016;-87
2022/06/30 05:00:15;;;;;;;8.32;5.65;;;17.80;99.90;;;;;;6220408;23;20046;-87
2022/06/30 05:02:40;;;;;;;9.27;5.70;;;17.80;99.90;;;;;;6247518;23;20051;-88
2022/06/30 05:05:07;;;;;;;9.05;6.32;;;17.90;99.90;;;;;;6247216;23;20020;-87
2022/06/30 05:07:32;;;;;;;7.82;6.03;;;18.00;99.90;;;;;;6247263;23;20460;-87
2022/06/30 05:09:58;;;;;;;9.75;5.95;;;18.00;99.90;;;;;;6220081;23;20077;-88
2022/06/30 05:12:24;;;;;;;7.30;6.13;;;18.10;99.90;;;;;;6220580;23;20044;-88
2022/06/30 05:14:49;;;;;;;7.68;5.95;;;18.10;99.90;;;;;;6220338;23;20087;-88
2022/06/30 05:17:15;;;;;;;7.43;5.53;;;18.20;99.90;;;;;;6247281;23;20306;-88
2022/06/30 05:19:41;;;;;;;7.82;6.00;;;18.30;99.90;;;;;;6246998;23;20094;-88
2022/06/30 05:22:07;;;;;;;6.30;5.70;;;18.40;99.90;;;;;;6246993;23;20012;-87
2022/06/30 05:27:17;;;;;;;7.82;6.47;;;18.50;99.90;;;;;;6220129;23;20031;-87
2022/06/30 05:29:43;;;;;;;9.32;6.63;;;18.70;99.90;;;;;;6220177;23;20016;-87
2022/06/30 05:32:08;;;;;;;7.78;5.28;;;18.70;99.90;;;;;;6220222;23;20070;-87
2022/06/30 05:34:35;;;;;;;7.05;6.18;;;18.80;99.90;;;;;;6220414;23;20448;-87
2022/06/30 05:37:02;;;;;;;6.72;6.03;;;18.90;99.90;;;;;;6246866;23;20022;-87
2022/06/30 05:39:28;;;;;;;7.35;5.85;;;19.10;99.90;;;;;;6219721;23;20020;-87
2022/06/30 05:41:54;;;;;;;7.32;6.30;;;19.20;99.90;;;;;;6246885;23;20058;-87
2022/06/30 05:44:19;;;;;;;8.85;5.88;;;19.20;99.90;;;;;;6246880;23;20024;-88
2022/06/30 05:46:45;;;;;;;8.40;6.25;;;19.30;99.90;;;;;;6247048;23;20012;-88
2022/06/30 05:49:11;;;;;;;7.22;6.53;;;19.50;99.90;;;;;;6219488;23;20024;-88
2022/06/30 05:51:37;;;;;;;11.48;6.60;;;19.50;99.90;;;;;;6219918;23;20381;-86
2022/06/30 05:54:03;;;;;;;9.77;7.32;;;19.70;99.90;;;;;;6246428;23;20456;-87
2022/06/30 05:56:28;;;;;;;9.23;6.63;;;19.80;99.90;;;;;;6246611;23;20020;-87
2022/06/30 05:58:54;;;;;;;8.20;6.22;;;19.90;99.90;;;;;;6246786;23;20075;-87
2022/06/30 06:01:20;;;;;;;7.30;5.80;;;20.00;99.90;;;;;;6246684;23;20020;-87
2022/06/30 06:03:46;;;;;;;9.52;6.53;;;20.10;99.90;;;;;;6246272;23;20027;-87
2022/06/30 06:06:11;;;;;;;6.75;6.07;;;20.20;99.90;;;;;;6247559;23;20022;-87
2022/06/30 06:08:37;;;;;;;10.23;6.90;;;20.30;99.90;;;;;;6247403;23;20031;-87
2022/06/30 06:11:02;;;;;;;7.85;6.80;;;20.40;99.90;;;;;;6219496;23;20016;-81
2022/06/30 06:13:28;;;;;;;7.82;6.47;;;20.50;99.90;;;;;;6246803;23;20058;-82
2022/06/30 06:15:54;;;;;;;7.45;6.47;;;20.60;99.90;;;;;;6219957;23;20146;-82
2022/06/30 06:18:20;;;;;;;9.02;6.70;;;20.60;99.90;;;;;;6246912;23;20439;-82
2022/06/30 06:20:45;;;;;;;7.78;6.45;;;20.70;99.90;;;;;;6219156;23;20016;-82
2022/06/30 06:23:11;;;;;;;13.13;7.25;;;20.80;99.90;;;;;;6246504;23;20099;-82
2022/06/30 06:25:37;;;;;;;6.97;6.10;;;20.90;99.90;;;;;;6243919;23;20062;-83
2022/06/30 06:30:47;;;;;;;7.13;6.43;;;21.10;99.90;;;;;;6240300;23;20077;-82
2022/06/30 06:33:13;;;;;;;7.85;6.95;;;21.10;99.90;;;;;;6245725;23;20016;-83
2022/06/30 06:35:38;;;;;;;10.75;6.57;;;21.20;99.90;;;;;;6246403;23;20016;-84
2022/06/30 06:38:04;;;;;;;7.72;6.82;;;21.30;99.90;;;;;;6246373;23;20385;-83
2022/06/30 06:40:30;;;;;;;9.20;7.28;;;21.40;99.90;;;;;;6246514;23;20070;-83
2022/06/30 06:42:56;;;;;;;9.63;7.40;;;21.50;99.90;;;;;;6246525;23;20348;-83
2022/06/30 06:45:21;;;;;;;9.65;7.40;;;21.60;99.90;;;;;;6246577;23;20020;-83
2022/06/30 06:47:47;;;;;;;8.30;7.13;;;21.70;99.90;;;;;;6246531;23;20107;-84
2022/06/30 06:50:14;;;;;;;8.45;7.30;;;22.00;99.90;;;;;;6246703;23;20014;-83
2022/06/30 06:52:39;;;;;;;7.95;7.15;;;22.40;99.90;;;;;;6246164;23;20051;-83
2022/06/30 06:55:06;;;;;;;9.55;8.00;;;22.90;99.90;;;;;;6218531;23;20456;-83
2022/06/30 06:57:36;;;;;;;7.13;6.50;;;23.30;99.90;;;;;;6219361;23;20019;-83
2022/06/30 07:00:06;;;;;;;;;;;23.60;99.90;;;;;;6246641;23;20022;-82
2022/06/30 07:02:32;;;;;;;8.00;6.85;;;23.90;99.90;;;;;;6246317;23;19915;-84
2022/06/30 07:04:57;;;;;;;10.02;8.27;;;24.30;99.90;;;;;;6245875;23;20543;-84
2022/06/30 07:07:23;;;;;;;9.82;7.32;;;24.60;99.90;;;;;;6219278;23;20052;-84
2022/06/30 07:09:49;;;;;;;9.15;8.00;;;25.00;99.90;;;;;;6246269;23;20027;-82
2022/06/30 07:12:14;;;;;;;9.63;8.35;;;25.30;99.90;;;;;;6245884;23;20016;-84
2022/06/30 07:14:40;;;;;;;9.25;8.07;;;25.60;99.90;;;;;;6246218;23;20063;-84
2022/06/30 07:17:06;;;;;;;10.63;7.50;;;25.90;99.90;;;;;;6246219;23;20440;-83
2022/06/30 07:19:32;;;;;;;12.15;7.75;;;26.30;99.90;;;;;;6246065;23;20432;-83
2022/06/30 07:21:57;;;;;;;9.20;8.07;;;26.70;99.90;;;;;;6218871;23;20074;-83
2022/06/30 07:24:23;;;;;;;9.38;8.18;;;27.00;98.60;;;;;;6246114;23;20016;-83
2022/06/30 07:26:48;;;;;;;14.07;8.77;;;27.30;97.00;;;;;;6246170;23;20321;-83
2022/06/30 07:29:14;;;;;;;10.32;8.43;;;27.70;95.40;;;;;;6246028;23;20023;-83
2022/06/30 07:31:40;;;;;;;12.52;9.27;;;28.10;92.50;;;;;;6246071;23;20031;-83
2022/06/30 07:34:06;;;;;;;12.85;9.68;;;28.50;90.90;;;;;;6247557;23;20020;-83
2022/06/30 07:36:31;;;;;;;8.45;7.65;;;28.70;90.00;;;;;;6221306;23;20048;-84
2022/06/30 07:38:57;;;;;;;11.13;7.90;;;29.00;85.20;;;;;;6248058;23;20031;-83
2022/06/30 07:41:24;;;;;;;10.30;8.57;;;29.40;80.20;;;;;;6221663;23;20024;-84
2022/06/30 07:43:51;;;;;;;11.35;7.68;;;29.70;75.30;;;;;;6248118;23;20023;-83
2022/06/30 07:46:17;;;;;;;9.27;8.38;;;29.90;73.80;;;;;;6248180;23;20066;-84
2022/06/30 07:48:43;;;;;;;9.27;8.02;;;30.20;70.10;;;;;;6247970;23;20019;-84
2022/06/30 07:51:09;;;;;;;8.82;7.60;;;30.50;69.30;;;;;;6247958;23;20054;-85
2022/06/30 07:53:34;;;;;;;10.43;8.07;;;30.90;67.50;;;;;;6247884;23;20020;-84
2022/06/30 07:56:00;;;;;;;8.43;7.60;;;31.20;65.30;;;;;;6247755;23;20066;-84
2022/06/30 07:58:26;;;;;;;8.32;7.53;;;31.60;63.70;;;;;;6248371;23;20343;-83
2022/06/30 08:00:52;;;;;;;9.20;7.00;;;31.80;62.70;;;;;;6221208;23;20097;-85
2022/06/30 08:03:17;;;;;;;10.30;8.25;;;32.10;62.30;;;;;;6248040;23;20442;-83
2022/06/30 08:05:43;;;;;;;15.07;7.72;;;32.40;59.60;;;;;;6247623;23;20320;-84
2022/06/30 08:08:09;;;;;;;10.05;7.60;;;32.70;58.60;;;;;;6247816;23;20122;-82
2022/06/30 08:10:34;;;;;;;8.82;7.72;;;32.80;58.40;;;;;;6248130;23;20035;-85
2022/06/30 08:13:00;;;;;;;9.00;8.20;;;32.90;57.20;;;;;;6247802;23;20027;-84
2022/06/30 08:15:26;;;;;;;8.32;7.40;;;33.00;56.50;;;;;;6247840;23;20027;-84
2022/06/30 08:17:52;;;;;;;8.05;7.13;;;33.20;57.40;;;;;;6247846;23;20016;-83
2022/06/30 08:20:18;;;;;;;9.98;8.10;;;33.50;55.90;;;;;;6220971;23;20091;-81
2022/06/30 08:22:44;;;;;;;10.63;8.10;;;33.70;55.30;;;;;;6247542;23;20051;-82
2022/06/30 08:25:10;;;;;;;10.95;8.40;;;33.80;53.60;;;;;;6247778;23;20020;-81
2022/06/30 08:27:36;;;;;;;9.98;8.98;;;34.00;52.80;;;;;;6247910;23;20323;-83
2022/06/30 08:30:02;;;;;;;9.88;8.85;;;34.10;52.60;;;;;;6221012;23;20447;-81
2022/06/30 08:32:27;;;;;;;13.35;8.68;;;34.20;52.00;;;;;;6247555;23;20455;-82
2022/06/30 08:34:53;;;;;;;10.55;9.38;;;34.30;52.70;;;;;;6247100;23;20020;-82
2022/06/30 08:37:19;;;;;;;9.95;8.63;;;34.40;51.50;;;;;;6247595;23;20039;-81
2022/06/30 08:42:31;;;;;;;11.50;9.43;;;34.70;52.30;;;;;;6247730;23;20020;-82
2022/06/30 08:47:42;;;;;;;11.07;9.98;;;34.90;52.40;;;;;;6221052;23;20348;-81
2022/06/30 08:50:09;;;;;;;10.98;9.35;;;35.00;51.50;;;;;;6220683;23;20020;-82
2022/06/30 08:52:43;;;;;;;11.40;10.05;;;35.00;51.30;;;;;;6220799;23;20024;-81
2022/06/30 08:55:11;;;;;;;9.63;8.70;;;35.20;50.90;;;;;;6221858;23;20016;-83
2022/06/30 08:57:40;;;;;;;9.80;8.90;;;35.30;50.40;;;;;;6247585;23;20016;-81
2022/06/30 09:00:06;;;;;;;9.70;8.68;;;35.40;50.60;;;;;;6247500;23;20122;-81
2022/06/30 09:02:32;;;;;;;11.75;10.50;;;35.40;51.40;;;;;;6247188;23;20051;-83
2022/06/30 09:04:58;;;;;;;12.10;10.50;;;35.70;49.70;;;;;;6247228;23;20078;-82
2022/06/30 09:07:24;;;;;;;11.50;10.32;;;35.70;48.80;;;;;;6247979;23;20018;-81
2022/06/30 09:09:51;;;;;;;12.50;10.27;;;36.00;48.80;;;;;;6248073;23;20044;-81
2022/06/30 09:12:18;;;;;;;10.65;9.75;;;36.10;48.60;;;;;;6248940;23;20027;-81
2022/06/30 09:14:48;;;;;;;9.98;8.98;;;36.30;47.90;;;;;;6247816;23;20016;-82
2022/06/30 09:17:20;;;;;;;11.18;10.05;;;36.40;47.50;;;;;;6247962;23;20328;-82
2022/06/30 09:20:00;;;;;;;13.30;11.90;;;36.40;48.40;;;;;;6249115;23;20302;-81
2022/06/30 09:22:34;;;;;;;10.90;9.88;;;36.60;47.50;;;;;;6248575;23;20012;-82
2022/06/30 09:25:02;;;;;;;8.60;7.75;;;36.80;47.40;;;;;;6249563;23;20393;-82
2022/06/30 09:27:31;;;;;;;9.70;8.80;;;36.90;47.70;;;;;;6253290;23;20360;-81
2022/06/30 09:30:07;;;;;;;10.93;9.82;;;36.90;47.50;;;;;;6249695;23;20038;-82
2022/06/30 09:32:54;;;;;;;9.63;8.25;;;37.00;46.30;;;;;;6221438;23;20336;-81
2022/06/30 09:35:22;;;;;;;11.50;10.30;;;37.20;47.20;;;;;;6247205;23;20066;-82
2022/06/30 09:38:08;;;;;;;12.80;11.50;;;37.60;46.60;;;;;;6246819;23;20459;-82
2022/06/30 09:43:32;;;;;;;11.77;9.20;;;37.60;45.90;;;;;;6247017;23;20024;-82
2022/06/30 09:45:58;;;;;;;11.07;9.93;;;37.60;45.20;;;;;;6247019;23;20436;-82
2022/06/30 09:48:28;;;;;;;11.50;9.25;;;37.40;46.10;;;;;;6246956;23;20073;-82
2022/06/30 09:51:04;;;;;;;8.45;7.03;;;37.70;44.90;;;;;;6246874;23;20013;-84
2022/06/30 09:53:30;;;;;;;8.23;6.70;;;38.00;45.10;;;;;;6246930;23;20340;-81
2022/06/30 09:56:08;;;;;;;10.20;8.32;;;37.90;43.20;;;;;;6247002;23;20074;-82
2022/06/30 09:58:35;;;;;;;10.00;9.18;;;37.80;43.10;;;;;;6219789;23;20020;-81
2022/06/30 10:01:02;;;;;;;9.10;8.30;;;37.50;43.30;;;;;;6246823;23;20022;-81
2022/06/30 10:03:27;;;;;;;10.40;7.43;;;37.60;44.10;;;;;;6246764;23;20012;-82
2022/06/30 10:06:10;;;;;;;8.02;7.15;;;37.50;44.90;;;;;;6246991;23;20020;-82
2022/06/30 10:08:36;;;;;;;8.27;7.43;;;36.60;46.80;;;;;;6247482;23;20091;-81
2022/06/30 10:11:02;;;;;;;9.02;7.50;;;36.50;45.40;;;;;;6247232;23;20365;-84
2022/06/30 10:13:29;;;;;;;8.15;7.32;;;37.00;45.20;;;;;;6247272;23;20051;-83
2022/06/30 10:15:56;;;;;;;9.23;8.32;;;37.20;46.30;;;;;;6219339;23;20022;-82
2022/06/30 10:18:27;;;;;;;10.77;7.60;;;37.60;44.50;;;;;;6219503;23;20019;-82
2022/06/30 10:20:54;;;;;;;11.98;6.63;;;37.70;43.60;;;;;;6246768;23;20016;-82
2022/06/30 10:23:20;;;;;;;8.55;7.65;;;37.90;44.40;;;;;;6195097;23;20024;-82
2022/06/30 10:25:48;;;;;;;9.63;6.75;;;38.20;43.10;;;;;;6246613;23;20027;-83
2022/06/30 10:28:21;;;;;;;7.20;5.88;;;38.40;43.50;;;;;;6246838;23;20447;-81
2022/06/30 10:31:02;;;;;;;8.57;5.53;;;38.60;41.90;;;;;;6247156;23;20012;-83
2022/06/30 10:33:32;;;;;;;6.07;5.07;;;38.40;41.40;;;;;;6246683;23;20016;-82
2022/06/30 10:36:10;;;;;;;8.35;4.85;;;37.10;40.30;;;;;;6246097;23;20448;-81
2022/06/30 10:38:51;;;;;;;9.18;5.03;;;35.20;42.50;;;;;;6246436;23;20020;-81
2022/06/30 10:41:18;;;;;;;7.03;5.72;;;33.70;45.80;;;;;;6246237;23;20036;-81
2022/06/30 10:44:05;;;;;;;6.13;5.53;;;33.40;47.50;;;;;;6246506;23;20020;-82
2022/06/30 10:46:36;;;;;;;10.75;7.43;;;34.40;49.20;;;;;;6246489;23;20020;-82
2022/06/30 10:49:10;;;;;;;9.20;7.05;;;35.60;46.40;;;;;;6246370;23;20020;-81
2022/06/30 10:51:36;;;;;;;13.43;9.73;;;36.60;43.90;;;;;;6194483;23;20020;-82
2022/06/30 10:54:01;;;;;;;9.70;8.73;;;37.10;43.60;;;;;;6246674;23;20511;-82
2022/06/30 10:57:02;;;;;;;9.48;8.13;;;36.80;44.30;;;;;;6246189;23;20016;-82
2022/06/30 10:59:31;;;;;;;8.43;7.55;;;36.50;45.90;;;;;;6124383;23;20323;-82
2022/06/30 11:02:09;;;;;;;9.05;6.82;;;36.40;45.60;;;;;;6099299;23;20020;-82
2022/06/30 11:04:39;;;;;;;7.28;6.25;;;35.30;45.10;;;;;;6099255;23;20014;-82
2022/06/30 11:07:11;;;;;;;7.45;5.47;;;34.40;46.60;;;;;;6123468;23;20362;-82
2022/06/30 11:09:54;;;;;;;8.15;6.05;;;34.80;46.00;;;;;;6099367;23;20065;-82
2022/06/30 11:12:29;;;;;;;9.93;4.97;;;35.50;45.30;;;;;;6123710;23;20018;-81
2022/06/30 11:14:56;;;;;;;8.07;4.93;;;36.00;42.90;;;;;;6123615;23;20022;-82
2022/06/30 11:17:25;;;;;;;7.18;4.72;;;36.10;42.90;;;;;;6123670;23;20018;-82
2022/06/30 11:20:03;;;;;;;7.72;5.50;;;36.20;44.50;;;;;;6123585;23;20014;-82
2022/06/30 11:22:30;;;;;;;11.20;4.95;;;36.80;44.30;;;;;;6123609;23;20026;-81
2022/06/30 11:25:03;;;;;;;7.53;4.70;;;37.20;43.20;;;;;;6123695;23;20053;-82
2022/06/30 11:27:31;;;;;;;10.95;5.55;;;37.40;43.20;;;;;;6123594;23;20385;-83
2022/06/30 11:30:14;;;;;;;8.18;5.45;;;37.40;41.50;;;;;;6099234;23;20057;-82
2022/06/30 11:32:40;;;;;;;8.15;4.85;;;37.40;41.10;;;;;;6146805;23;20513;-81
2022/06/30 11:35:07;;;;;;;7.93;4.63;;;37.40;41.80;;;;;;6219047;23;20012;-82
2022/06/30 11:37:33;;;;;;;6.15;4.25;;;37.50;41.60;;;;;;6245530;23;20451;-82
2022/06/30 11:40:02;;;;;;;4.47;3.47;;;37.50;40.50;;;;;;6245820;23;20012;-82
2022/06/30 11:42:28;;;;;;;5.37;2.80;;;37.60;41.00;;;;;;6219137;23;20020;-81
2022/06/30 11:44:54;;;;;;;4.80;2.20;;;37.80;39.60;;;;;;6246140;23;20305;-82
2022/06/30 11:47:22;;;;;;;5.72;1.98;;;38.10;38.80;;;;;;6217796;23;20078;-82
2022/06/30 11:50:00;;;;;;;5.65;1.92;;;38.20;36.70;;;;;;6246368;23;20012;-82
2022/06/30 11:52:29;;;;;;;4.80;1.88;;;38.20;36.70;;;;;;6219273;23;20044;-82
2022/06/30 11:54:59;;;;;;;4.97;1.95;;;38.20;37.10;;;;;;6245855;23;20438;-81
2022/06/30 11:57:31;;;;;;;3.95;1.77;;;38.00;36.70;;;;;;6246254;23;20363;-82
2022/06/30 12:00:04;;;;;;;4.25;1.90;;;37.80;36.10;;;;;;6245936;23;20016;-81
2022/06/30 12:02:32;;;;;;;5.28;1.75;;;37.40;36.70;;;;;;6246022;23;20053;-81
2022/06/30 12:04:59;;;;;;;3.42;1.67;;;37.10;36.30;;;;;;6245859;23;20023;-82
2022/06/30 12:07:26;;;;;;;6.63;1.83;;;36.90;36.50;;;;;;6245376;23;20509;-81
2022/06/30 12:09:53;;;;;;;5.53;1.90;;;37.10;38.20;;;;;;6219129;23;20078;-81
2022/06/30 12:12:23;;;;;;;4.40;2.00;;;37.00;37.50;;;;;;6219256;23;20155;-82
2022/06/30 12:14:54;;;;;;;8.90;3.40;;;36.70;38.20;;;;;;6245918;23;20016;-81
2022/06/30 12:17:20;;;;;;;6.43;3.38;;;36.40;38.80;;;;;;6218703;23;20024;-81
2022/06/30 12:19:50;;;;;;;7.70;3.40;;;36.00;39.80;;;;;;6219505;23;20023;-82
2022/06/30 12:22:16;;;;;;;8.60;3.08;;;35.70;40.80;;;;;;6220414;23;20087;-82
2022/06/30 12:24:46;;;;;;;8.32;3.35;;;35.30;40.80;;;;;;6247883;23;20020;-82
2022/06/30 12:27:35;;;;;;;5.78;2.78;;;34.80;41.10;;;;;;6220200;23;20083;-82
2022/06/30 12:30:06;;;;;;;6.22;3.40;;;34.40;43.10;;;;;;6248216;23;20012;-81
2022/06/30 12:32:32;;;;;;;8.68;5.90;;;34.10;42.80;;;;;;6221011;23;20024;-81
2022/06/30 12:35:04;;;;;;;8.88;6.72;;;33.90;43.60;;;;;;6220939;23;20383;-81
2022/06/30 12:37:36;;;;;;;9.20;6.68;;;33.50;46.10;;;;;;6220791;23;20023;-81
2022/06/30 12:40:08;;;;;;;10.20;7.85;;;33.30;47.20;;;;;;6247903;23;20016;-82
2022/06/30 12:42:52;;;;;;;10.48;7.35;;;33.10;48.10;;;;;;6247975;23;20336;-82
2022/06/30 12:45:45;;;;;;;10.65;6.95;;;32.90;49.80;;;;;;6220765;23;20024;-82
2022/06/30 12:48:36;;;;;;;8.00;6.35;;;32.90;49.90;;;;;;6220812;23;20016;-81
2022/06/30 12:51:01;;;;;;;6.53;4.95;;;32.80;49.70;;;;;;6124991;23;20073;-86
2022/06/30 12:53:28;;;;;;;7.70;5.03;;;32.90;51.20;;;;;;6124865;23;20102;-83
2022/06/30 12:56:04;;;;;;;6.72;4.63;;;33.20;50.70;;;;;;6100369;23;20153;-81
2022/06/30 12:59:04;;;;;;;7.38;5.35;;;33.50;49.20;;;;;;6124737;23;20497;-80
2022/06/30 13:01:33;;;;;;;10.43;6.25;;;33.40;48.80;;;;;;6014119;23;20019;-79
2022/06/30 13:04:01;;;;;;;8.20;6.05;;;33.10;50.30;;;;;;6037934;23;20106;-81
2022/06/30 13:06:36;;;;;;;9.00;4.97;;;32.90;51.20;;;;;;6013886;23;20444;-81
2022/06/30 13:09:06;;;;;;;7.57;5.13;;;32.80;52.90;;;;;;6038004;23;20527;-81
2022/06/30 13:11:33;;;;;;;10.68;5.25;;;32.70;52.20;;;;;;6038020;23;20019;-80
2022/06/30 13:14:00;;;;;;;8.13;4.93;;;32.30;52.80;;;;;;6014184;23;20031;-80